< < Back
Terminal Aerodrome Forecast


Current Version              Previous Versions:   1  2  3  4  5  6  7  8  9  

Terminal Aerodrome Forecast

265
FTUS42 KJAX 292300
TAFJAX
TAF
KJAX 292320Z 3000/3024 30005KT P6SM SCT060
     FM300300 00000KT P6SM SKC
     FM301400 33006KT P6SM FEW060=

Latest METAR

673
SAUS80 KWBC 300300
MTRJAX
METAR KJAX 300256Z 30007KT 10SM FEW250 26/18 A2993 RMK AO2 SLP134
T02560178 50009


USA.gov is the U.S. government's official web portal to all federal, state and local government web resources and services.